createdAt,value
2023-02-13T00:00:47.097Z,-0.08
2023-02-13T00:03:14.389Z,0.01
2023-02-13T00:05:41.197Z,-0.24
2023-02-13T00:08:07.967Z,-0.28
2023-02-13T00:10:34.780Z,-0.12
2023-02-13T00:13:01.521Z,-0.14
2023-02-13T00:15:28.526Z,-0.03
2023-02-13T00:17:55.278Z,-0.15
2023-02-13T00:20:22.234Z,-0.24
2023-02-13T00:22:48.997Z,-0.18
2023-02-13T00:25:15.744Z,-0.30
2023-02-13T00:27:42.535Z,-0.32
2023-02-13T00:30:09.943Z,-0.30
2023-02-13T00:32:36.681Z,-0.32
2023-02-13T00:35:03.488Z,-0.38
2023-02-13T00:37:30.941Z,-0.25
2023-02-13T00:39:58.078Z,-0.32
2023-02-13T00:42:26.625Z,-0.37
2023-02-13T00:44:54.506Z,-0.30
2023-02-13T00:47:22.001Z,-0.32
2023-02-13T00:49:48.878Z,-0.45
2023-02-13T00:52:15.636Z,-0.41
2023-02-13T00:54:42.421Z,-0.56
2023-02-13T00:57:09.202Z,-0.69
2023-02-13T00:59:35.938Z,-0.46
2023-02-13T01:02:02.724Z,-0.49
2023-02-13T01:04:29.576Z,-0.56
2023-02-13T01:06:56.321Z,-0.61
2023-02-13T01:09:23.039Z,-0.61
2023-02-13T01:11:49.925Z,-0.69
2023-02-13T01:14:16.715Z,-0.70
2023-02-13T01:16:43.531Z,-0.57
2023-02-13T01:19:10.281Z,-0.63
2023-02-13T01:21:37.049Z,-0.76
2023-02-13T01:24:06.157Z,-0.67
2023-02-13T01:26:33.035Z,-0.70
2023-02-13T01:28:59.925Z,-0.76
2023-02-13T01:31:27.973Z,-0.84
2023-02-13T01:33:58.274Z,-0.84
2023-02-13T01:36:26.006Z,-0.87
2023-02-13T01:38:58.251Z,-0.83
2023-02-13T01:41:27.408Z,-0.93
2023-02-13T01:44:24.637Z,-0.93
2023-02-13T01:46:51.485Z,-0.93
2023-02-13T01:49:24.308Z,-0.87
2023-02-13T01:51:53.324Z,-0.90
2023-02-13T01:54:31.271Z,-0.91
2023-02-13T01:57:06.786Z,-0.85
2023-02-13T02:00:04.185Z,-0.86
2023-02-13T02:02:36.150Z,-0.89
2023-02-13T02:05:05.136Z,-0.96
2023-02-13T02:07:33.138Z,-1.06
2023-02-13T02:10:06.200Z,-0.92
2023-02-13T02:12:50.761Z,-0.94
2023-02-13T02:15:17.617Z,-0.98
2023-02-13T02:17:44.431Z,-0.88
2023-02-13T02:20:42.735Z,-0.85
2023-02-13T02:23:46.377Z,-0.83
2023-02-13T02:26:43.988Z,-0.84
2023-02-13T02:29:28.552Z,-0.77
2023-02-13T02:32:35.843Z,-0.69
2023-02-13T02:35:19.284Z,-0.65
2023-02-13T02:38:12.195Z,-0.61
2023-02-13T02:41:40.024Z,-0.59
2023-02-13T02:44:59.377Z,-0.54
2023-02-13T02:48:00.884Z,-0.56
2023-02-13T02:51:13.585Z,-0.38
2023-02-13T02:53:44.692Z,-0.34
2023-02-13T02:56:24.775Z,-0.56
2023-02-13T02:59:21.058Z,-0.32
2023-02-13T03:02:07.601Z,-0.27
2023-02-13T03:04:59.463Z,-0.21
2023-02-13T03:07:27.727Z,-0.17
2023-02-13T03:10:22.268Z,-0.14
2023-02-13T03:13:18.573Z,-0.15
2023-02-13T03:16:05.549Z,-0.13
2023-02-13T03:18:57.150Z,-0.06
2023-02-13T03:21:57.343Z,-0.02
2023-02-13T03:24:58.633Z,0.14
2023-02-13T03:28:01.046Z,0.03
2023-02-13T03:30:49.172Z,0.07
2023-02-13T03:33:44.267Z,0.12
2023-02-13T03:37:00.746Z,0.17
2023-02-13T03:40:09.988Z,0.19
2023-02-13T03:43:08.939Z,0.21
2023-02-13T03:45:57.408Z,0.22
2023-02-13T03:48:53.041Z,0.25
2023-02-13T03:51:29.368Z,0.30
2023-02-13T03:54:02.264Z,0.24
2023-02-13T03:56:50.985Z,0.25
2023-02-13T03:59:31.210Z,0.33
2023-02-13T04:02:17.508Z,0.45
2023-02-13T04:05:14.802Z,0.48
2023-02-13T04:07:42.906Z,0.52
2023-02-13T04:10:14.741Z,0.49
2023-02-13T04:13:17.294Z,0.67
2023-02-13T04:15:51.430Z,0.66
2023-02-13T04:18:24.085Z,0.55
2023-02-13T04:23:17.708Z,0.84
2023-02-13T04:25:50.118Z,0.89
2023-02-13T04:28:17.306Z,0.77
2023-02-13T04:30:44.274Z,0.81
2023-02-13T04:33:11.192Z,0.95
2023-02-13T04:35:37.980Z,0.93
2023-02-13T04:38:05.062Z,0.80
2023-02-13T04:40:31.861Z,0.83
2023-02-13T04:42:58.977Z,0.94
2023-02-13T04:45:25.749Z,0.97
2023-02-13T04:47:55.467Z,1.05
2023-02-13T04:50:23.416Z,1.03
2023-02-13T04:52:57.991Z,1.03
2023-02-13T04:55:27.617Z,1.00
2023-02-13T04:57:56.473Z,1.02
2023-02-13T05:00:25.982Z,0.93
2023-02-13T05:02:53.562Z,1.01
2023-02-13T05:05:21.596Z,0.94
2023-02-13T05:07:48.457Z,0.95
2023-02-13T05:10:15.238Z,0.97
2023-02-13T05:12:42.006Z,0.96
2023-02-13T05:15:09.622Z,1.03
2023-02-13T05:17:36.368Z,0.98
2023-02-13T05:20:03.346Z,1.09
2023-02-13T05:22:53.112Z,1.08
2023-02-13T05:25:19.843Z,0.97
2023-02-13T05:27:46.568Z,0.95
2023-02-13T05:30:14.486Z,1.12
2023-02-13T05:32:43.346Z,1.02
2023-02-13T05:35:10.141Z,1.15
2023-02-13T05:37:37.069Z,1.07
2023-02-13T05:40:04.662Z,1.10
2023-02-13T05:42:31.433Z,1.09
2023-02-13T05:44:58.185Z,0.96
2023-02-13T05:47:24.982Z,1.07
2023-02-13T05:49:51.730Z,1.15
2023-02-13T05:52:18.482Z,1.09
2023-02-13T05:54:45.249Z,1.12
2023-02-13T05:57:11.990Z,1.05
2023-02-13T05:59:38.755Z,1.03
2023-02-13T06:02:05.545Z,1.09
2023-02-13T06:04:32.261Z,1.03
2023-02-13T06:06:59.417Z,1.07
2023-02-13T06:09:26.170Z,1.06
2023-02-13T06:11:52.893Z,1.09
2023-02-13T06:14:19.634Z,1.07
2023-02-13T06:16:46.392Z,1.08
2023-02-13T06:19:13.147Z,1.10
2023-02-13T06:21:39.924Z,1.08
2023-02-13T06:24:08.388Z,1.05
2023-02-13T06:26:35.438Z,1.07
2023-02-13T06:29:02.187Z,0.99
2023-02-13T06:31:29.068Z,1.03
2023-02-13T06:33:56.080Z,0.98
2023-02-13T06:36:22.800Z,1.15
2023-02-13T06:38:49.538Z,1.18
2023-02-13T06:41:16.253Z,1.07
2023-02-13T06:43:43.396Z,0.99
2023-02-13T06:46:10.322Z,0.89
2023-02-13T06:48:37.316Z,0.89
2023-02-13T06:51:04.565Z,0.82
2023-02-13T06:53:31.377Z,0.86
2023-02-13T06:55:58.173Z,0.86
2023-02-13T06:58:26.398Z,0.96
2023-02-13T07:00:53.738Z,0.96
2023-02-13T07:03:20.570Z,0.98
2023-02-13T07:05:47.777Z,0.96
2023-02-13T07:08:14.574Z,0.94
2023-02-13T07:10:42.366Z,0.96
2023-02-13T07:13:10.901Z,0.96
2023-02-13T07:15:38.315Z,0.97
2023-02-13T07:18:06.460Z,0.89
2023-02-13T07:20:33.765Z,0.91
2023-02-13T07:23:02.357Z,0.99
2023-02-13T07:25:29.817Z,1.07
2023-02-13T07:28:05.028Z,1.06
2023-02-13T07:30:33.631Z,1.09
2023-02-13T07:33:05.081Z,1.03
2023-02-13T07:35:32.578Z,1.03
2023-02-13T07:38:00.774Z,1.07
2023-02-13T07:40:27.959Z,1.07
2023-02-13T07:42:55.558Z,0.96
2023-02-13T07:45:22.309Z,0.93
2023-02-13T07:47:49.065Z,0.94
2023-02-13T07:50:15.954Z,1.01
2023-02-13T07:52:42.716Z,0.84
2023-02-13T07:55:11.673Z,0.92
2023-02-13T07:57:38.513Z,0.98
2023-02-13T08:00:06.444Z,1.01
2023-02-13T08:02:33.188Z,1.03
2023-02-13T08:04:59.954Z,1.06
2023-02-13T08:07:27.049Z,1.07
2023-02-13T08:10:12.295Z,1.05
2023-02-13T08:12:39.129Z,1.12
2023-02-13T08:15:06.984Z,1.17
2023-02-13T08:17:33.743Z,1.16
2023-02-13T08:20:00.457Z,1.16
2023-02-13T08:22:27.240Z,1.15
2023-02-13T08:24:54.347Z,1.24
2023-02-13T08:27:21.204Z,1.26
2023-02-13T08:29:49.765Z,1.24
2023-02-13T08:32:16.639Z,1.39
2023-02-13T08:34:43.526Z,1.28
2023-02-13T08:37:10.306Z,1.32
2023-02-13T08:39:37.383Z,1.28
2023-02-13T08:42:04.262Z,1.39
2023-02-13T08:44:31.553Z,1.41
2023-02-13T08:46:58.382Z,1.44
2023-02-13T08:49:25.214Z,1.41
2023-02-13T08:51:51.934Z,1.43
2023-02-13T08:54:18.756Z,1.41
2023-02-13T08:56:45.719Z,1.39
2023-02-13T08:59:12.482Z,1.35
2023-02-13T09:01:39.570Z,1.44
2023-02-13T09:04:06.426Z,1.36
2023-02-13T09:06:33.445Z,1.26
2023-02-13T09:09:00.227Z,1.41
2023-02-13T09:11:27.025Z,1.44
2023-02-13T09:13:54.748Z,1.24
2023-02-13T09:16:21.843Z,1.44
2023-02-13T09:18:51.734Z,1.60
2023-02-13T09:21:22.133Z,1.46
2023-02-13T09:23:48.874Z,1.53
2023-02-13T09:26:19.018Z,1.54
2023-02-13T09:28:46.653Z,1.50
2023-02-13T09:31:17.572Z,1.51
2023-02-13T09:33:46.491Z,1.52
2023-02-13T09:36:19.354Z,1.62
2023-02-13T09:38:47.519Z,1.56
2023-02-13T09:41:27.121Z,1.47
2023-02-13T09:44:03.122Z,1.67
2023-02-13T09:46:35.925Z,1.78
2023-02-13T09:49:16.716Z,1.88
2023-02-13T09:51:54.720Z,1.70
2023-02-13T09:54:21.581Z,1.72
2023-02-13T09:57:11.085Z,1.80
2023-02-13T09:59:46.764Z,1.77
2023-02-13T10:02:46.340Z,1.87
2023-02-13T10:05:41.061Z,1.87
2023-02-13T10:08:41.741Z,2.05
2023-02-13T10:11:54.725Z,1.97
2023-02-13T10:14:42.679Z,1.95
2023-02-13T10:17:26.406Z,1.88
2023-02-13T10:20:04.497Z,2.00
2023-02-13T10:22:38.285Z,1.91
2023-02-13T10:25:13.596Z,1.81
2023-02-13T10:27:51.278Z,1.87
2023-02-13T10:30:26.314Z,1.92
2023-02-13T10:33:20.275Z,1.99
2023-02-13T10:36:03.037Z,2.03
2023-02-13T10:38:36.349Z,2.08
2023-02-13T10:41:43.143Z,2.17
2023-02-13T10:44:12.435Z,2.16
2023-02-13T10:47:19.989Z,2.19
2023-02-13T10:50:09.283Z,2.23
2023-02-13T10:52:55.282Z,2.12
2023-02-13T10:56:08.847Z,2.10
2023-02-13T10:58:56.514Z,1.95
2023-02-13T11:01:32.079Z,2.03
2023-02-13T11:04:25.324Z,2.13
2023-02-13T11:07:03.621Z,2.22
2023-02-13T11:09:40.394Z,2.29
2023-02-13T11:12:34.807Z,2.39
2023-02-13T11:15:06.055Z,2.25
2023-02-13T11:17:40.403Z,2.39
2023-02-13T11:20:48.222Z,2.38
2023-02-13T11:23:39.450Z,2.47
2023-02-13T11:26:15.425Z,2.46
2023-02-13T11:28:54.989Z,2.58
2023-02-13T11:31:34.521Z,2.30
2023-02-13T11:34:27.775Z,2.32
2023-02-13T11:37:14.085Z,2.40
2023-02-13T11:39:42.591Z,2.41
2023-02-13T11:42:34.170Z,2.37
2023-02-13T11:45:06.758Z,2.38
2023-02-13T11:47:40.651Z,2.46
2023-02-13T11:50:32.124Z,2.51
2023-02-13T11:53:04.977Z,2.50
2023-02-13T11:55:39.627Z,2.50
2023-02-13T11:58:12.309Z,2.59
2023-02-13T12:00:41.745Z,2.45
2023-02-13T12:03:27.898Z,2.46
2023-02-13T12:06:05.574Z,2.46
2023-02-13T12:08:36.978Z,2.55
2023-02-13T12:11:16.184Z,2.68
2023-02-13T12:13:43.420Z,2.80
2023-02-13T12:16:54.764Z,2.84
2023-02-13T12:19:30.362Z,2.81
2023-02-13T12:22:39.857Z,2.91
2023-02-13T12:25:34.192Z,2.66
2023-02-13T12:31:32.323Z,2.75
2023-02-13T12:34:38.537Z,2.88
2023-02-13T12:37:24.805Z,2.90
2023-02-13T12:40:43.337Z,2.82
2023-02-13T12:43:33.725Z,2.76
2023-02-13T12:46:29.898Z,2.84
2023-02-13T12:49:18.519Z,2.91
2023-02-13T12:52:10.498Z,2.93
2023-02-13T12:55:19.891Z,3.04
2023-02-13T12:58:40.840Z,3.07
2023-02-13T13:01:29.304Z,3.11
2023-02-13T13:04:23.915Z,3.17
2023-02-13T13:07:16.847Z,3.05
2023-02-13T13:10:37.454Z,2.97
2023-02-13T13:13:16.090Z,3.07
2023-02-13T13:16:16.958Z,3.14
2023-02-13T13:19:07.644Z,3.25
2023-02-13T13:22:18.594Z,3.17
2023-02-13T13:25:16.427Z,3.22
2023-02-13T13:27:47.029Z,3.29
2023-02-13T13:30:29.352Z,3.28
2023-02-13T13:33:14.268Z,3.31
2023-02-13T13:36:05.474Z,3.31
2023-02-13T13:39:09.033Z,3.34
2023-02-13T13:41:43.264Z,3.41
2023-02-13T13:44:31.577Z,3.45
2023-02-13T13:47:32.823Z,3.38
2023-02-13T13:50:02.205Z,3.36
2023-02-13T13:52:34.366Z,3.46
2023-02-13T13:55:04.505Z,3.46
2023-02-13T13:57:34.103Z,3.55
2023-02-13T14:00:23.829Z,3.48
2023-02-13T14:03:13.587Z,3.24
2023-02-13T14:06:10.036Z,3.11
2023-02-13T14:08:44.418Z,3.14
2023-02-13T14:11:38.091Z,3.15
2023-02-13T14:14:30.636Z,3.18
2023-02-13T14:17:03.084Z,3.18
2023-02-13T14:19:37.682Z,3.21
2023-02-13T14:22:19.365Z,3.13
2023-02-13T14:24:54.225Z,2.96
2023-02-13T14:27:23.383Z,3.11
2023-02-13T14:29:50.905Z,3.02
2023-02-13T14:32:37.289Z,3.17
2023-02-13T14:35:20.831Z,3.26
2023-02-13T14:37:52.136Z,3.22
2023-02-13T14:40:18.775Z,3.34
2023-02-13T14:42:52.715Z,3.33
2023-02-13T14:45:27.371Z,3.26
2023-02-13T14:47:56.647Z,3.30
2023-02-13T14:50:32.804Z,3.25
2023-02-13T14:53:07.545Z,3.24
2023-02-13T14:55:38.469Z,3.36
2023-02-13T14:58:29.747Z,3.37
2023-02-13T15:01:28.568Z,3.39
2023-02-13T15:04:10.856Z,3.43
2023-02-13T15:06:42.755Z,3.42
2023-02-13T15:09:35.300Z,3.30
2023-02-13T15:12:02.186Z,3.36
2023-02-13T15:14:34.632Z,3.32
2023-02-13T15:17:19.980Z,3.28
2023-02-13T15:19:54.820Z,3.37
2023-02-13T15:22:39.885Z,3.38
2023-02-13T15:25:08.801Z,3.43
2023-02-13T15:27:43.521Z,3.39
2023-02-13T15:30:30.391Z,3.35
2023-02-13T15:33:16.509Z,3.35
2023-02-13T15:35:43.495Z,3.36
2023-02-13T15:38:36.664Z,3.38
2023-02-13T15:41:04.602Z,3.27
2023-02-13T15:43:57.468Z,3.22
2023-02-13T15:46:34.545Z,3.30
2023-02-13T15:49:08.052Z,3.24
2023-02-13T15:51:35.501Z,3.11
2023-02-13T15:54:27.631Z,3.04
2023-02-13T15:56:58.451Z,2.94
2023-02-13T15:59:32.701Z,2.86
2023-02-13T16:02:01.269Z,2.91
2023-02-13T16:04:28.516Z,2.82
2023-02-13T16:06:56.713Z,2.85
2023-02-13T16:09:27.537Z,2.80
2023-02-13T16:12:00.668Z,2.74
2023-02-13T16:14:30.186Z,2.83
2023-02-13T16:17:00.387Z,2.73
2023-02-13T16:19:50.743Z,2.61
2023-02-13T16:22:18.680Z,2.67
2023-02-13T16:24:50.845Z,2.69
2023-02-13T16:27:21.610Z,2.72
2023-02-13T16:29:59.058Z,2.68
2023-02-13T16:32:38.861Z,2.72
2023-02-13T16:35:30.059Z,2.68
2023-02-13T16:38:01.879Z,2.70
2023-02-13T16:40:31.604Z,2.67
2023-02-13T16:43:41.722Z,2.64
2023-02-13T16:46:23.554Z,2.65
2023-02-13T16:49:01.869Z,2.59
2023-02-13T16:51:39.609Z,2.48
2023-02-13T16:54:25.773Z,2.38
2023-02-13T16:57:05.514Z,2.41
2023-02-13T16:59:40.540Z,2.40
2023-02-13T17:02:28.960Z,2.44
2023-02-13T17:05:09.534Z,2.43
2023-02-13T17:07:44.051Z,2.33
2023-02-13T17:10:31.438Z,2.28
2023-02-13T17:13:11.584Z,2.31
2023-02-13T17:15:44.035Z,2.34
2023-02-13T17:18:10.877Z,2.31
2023-02-13T17:20:41.530Z,2.37
2023-02-13T17:23:18.363Z,2.36
2023-02-13T17:25:47.577Z,2.38
2023-02-13T17:28:18.734Z,2.41
2023-02-13T17:30:48.259Z,2.37
2023-02-13T17:33:25.912Z,2.38
2023-02-13T17:35:54.080Z,2.43
2023-02-13T17:38:20.983Z,2.39
2023-02-13T17:40:48.571Z,2.32
2023-02-13T17:43:20.870Z,2.25
2023-02-13T17:45:49.786Z,2.33
2023-02-13T17:48:16.994Z,2.14
2023-02-13T17:50:44.328Z,2.29
2023-02-13T17:53:32.917Z,2.31
2023-02-13T17:55:59.722Z,2.20
2023-02-13T17:58:26.584Z,2.03
2023-02-13T18:00:53.549Z,2.19
2023-02-13T18:03:20.655Z,2.01
2023-02-13T18:05:49.797Z,1.99
2023-02-13T18:08:16.940Z,2.11
2023-02-13T18:10:43.691Z,2.12
2023-02-13T18:13:10.456Z,2.07
2023-02-13T18:15:44.240Z,2.06
2023-02-13T18:18:13.494Z,2.07
2023-02-13T18:20:40.245Z,2.07
2023-02-13T18:23:07.348Z,1.99
2023-02-13T18:25:34.873Z,1.94
2023-02-13T18:28:01.921Z,2.03
2023-02-13T18:30:29.065Z,1.92
2023-02-13T18:32:59.000Z,1.94
2023-02-13T18:35:26.036Z,1.98
2023-02-13T18:37:52.864Z,1.85
2023-02-13T18:40:19.855Z,1.94
2023-02-13T18:42:46.710Z,1.95
2023-02-13T18:45:13.710Z,1.88
2023-02-13T18:47:40.653Z,1.86
2023-02-13T18:50:09.447Z,1.81
2023-02-13T18:52:36.704Z,1.90
2023-02-13T18:55:07.249Z,1.88
2023-02-13T18:57:34.536Z,1.86
2023-02-13T19:00:01.409Z,1.65
2023-02-13T19:02:28.321Z,1.76
2023-02-13T19:04:55.121Z,1.83
2023-02-13T19:07:21.864Z,1.83
2023-02-13T19:09:48.792Z,1.69
2023-02-13T19:12:15.574Z,1.70
2023-02-13T19:14:42.365Z,1.78
2023-02-13T19:17:10.337Z,1.71
2023-02-13T19:19:37.270Z,1.53
2023-02-13T19:22:04.257Z,1.68
2023-02-13T19:24:31.166Z,1.64
2023-02-13T19:26:58.084Z,1.43
2023-02-13T19:29:25.045Z,1.59
2023-02-13T19:31:51.877Z,1.60
2023-02-13T19:34:18.816Z,1.23
2023-02-13T19:36:45.599Z,1.51
2023-02-13T19:39:12.433Z,1.42
2023-02-13T19:41:40.900Z,1.30
2023-02-13T19:44:08.859Z,1.49
2023-02-13T19:46:37.139Z,1.52
2023-02-13T19:49:05.329Z,1.44
2023-02-13T19:51:34.861Z,1.53
2023-02-13T19:54:08.123Z,1.49
2023-02-13T19:56:38.288Z,1.34
2023-02-13T19:59:07.181Z,1.35
2023-02-13T20:01:34.178Z,1.11
2023-02-13T20:04:01.153Z,1.08
2023-02-13T20:06:37.625Z,1.17
2023-02-13T20:09:10.385Z,1.19
2023-02-13T20:11:37.324Z,1.15
2023-02-13T20:14:05.571Z,1.24
2023-02-13T20:16:35.628Z,1.27
2023-02-13T20:19:09.053Z,1.27
2023-02-13T20:21:36.778Z,1.20
2023-02-13T20:24:05.019Z,1.23
2023-02-13T20:26:31.887Z,1.14
2023-02-13T20:28:59.791Z,1.12
2023-02-13T20:31:29.416Z,1.16
2023-02-13T20:33:57.812Z,0.97
2023-02-13T20:36:30.931Z,1.03
2023-02-13T20:39:01.110Z,0.95
2023-02-13T20:41:31.580Z,0.98
2023-02-13T20:44:01.524Z,0.98
2023-02-13T20:46:32.845Z,1.05
2023-02-13T20:48:59.711Z,0.97
2023-02-13T20:51:26.569Z,1.02
2023-02-13T20:53:55.006Z,0.99
2023-02-13T20:56:25.349Z,0.93
2023-02-13T20:58:56.133Z,0.91
2023-02-13T21:01:25.535Z,0.88
2023-02-13T21:03:54.876Z,0.85
2023-02-13T21:06:32.104Z,0.78
2023-02-13T21:08:59.064Z,0.79
2023-02-13T21:11:28.482Z,0.80
2023-02-13T21:13:57.276Z,0.83
2023-02-13T21:16:34.385Z,0.83
2023-02-13T21:19:06.982Z,0.89
2023-02-13T21:21:36.384Z,0.83
2023-02-13T21:24:08.758Z,0.95
2023-02-13T21:26:36.802Z,0.94
2023-02-13T21:29:05.998Z,0.70
2023-02-13T21:31:47.525Z,0.87
2023-02-13T21:34:16.695Z,0.86
2023-02-13T21:36:43.935Z,0.90
2023-02-13T21:39:12.351Z,0.76
2023-02-13T21:41:41.580Z,0.79
2023-02-13T21:44:11.110Z,0.78
2023-02-13T21:46:37.885Z,0.72
2023-02-13T21:49:06.365Z,0.67
2023-02-13T21:51:36.036Z,0.69
2023-02-13T21:54:04.930Z,0.66
2023-02-13T21:56:35.649Z,0.74
2023-02-13T21:59:02.835Z,0.77
2023-02-13T22:01:33.408Z,0.72
2023-02-13T22:04:04.204Z,0.82
2023-02-13T22:06:33.839Z,0.69
2023-02-13T22:09:05.841Z,0.73
2023-02-13T22:11:33.851Z,0.71
2023-02-13T22:14:03.385Z,0.74
2023-02-13T22:16:33.224Z,0.72
2023-02-13T22:19:00.592Z,0.72
2023-02-13T22:21:30.558Z,0.64
2023-02-13T22:23:57.945Z,0.69
2023-02-13T22:26:30.955Z,0.63
2023-02-13T22:29:07.537Z,0.32
2023-02-13T22:31:35.362Z,0.47
2023-02-13T22:34:04.686Z,0.57
2023-02-13T22:36:40.745Z,0.53
2023-02-13T22:39:10.152Z,0.56
2023-02-13T22:41:37.773Z,0.51
2023-02-13T22:44:05.000Z,0.58
2023-02-13T22:46:33.512Z,0.63
2023-02-13T22:49:00.783Z,0.51
2023-02-13T22:51:35.585Z,0.49
2023-02-13T22:54:03.798Z,0.49
2023-02-13T22:56:31.713Z,0.45
2023-02-13T22:58:59.651Z,0.40
2023-02-13T23:01:28.356Z,0.27
2023-02-13T23:03:56.490Z,0.48
2023-02-13T23:06:24.216Z,0.44
2023-02-13T23:08:53.677Z,0.50
2023-02-13T23:11:45.965Z,0.51
2023-02-13T23:14:13.777Z,0.28
2023-02-13T23:17:00.465Z,0.42
2023-02-13T23:19:29.854Z,0.46
2023-02-13T23:21:56.902Z,0.42
2023-02-13T23:24:24.020Z,0.33
2023-02-13T23:26:50.767Z,0.35
2023-02-13T23:29:17.573Z,0.41
2023-02-13T23:31:44.522Z,0.43
2023-02-13T23:34:11.458Z,0.27
2023-02-13T23:36:38.416Z,0.26
2023-02-13T23:39:05.219Z,0.32
2023-02-13T23:41:31.965Z,0.26
2023-02-13T23:43:58.734Z,0.26
2023-02-13T23:46:25.588Z,0.18
2023-02-13T23:48:52.375Z,0.17
2023-02-13T23:51:21.304Z,0.08
2023-02-13T23:53:48.184Z,-0.03
2023-02-13T23:56:15.359Z,0.14
2023-02-13T23:58:42.163Z,0.01
